Terminal Aerodrome Forecast
Issued by NWS Austin/San Antonio, TX

Home | Current Version | Previous Version | Text Only | Print | Product List | Glossary On
Versions: 1 2 3 4 5 6 7 8 9 10 11 12 13 14 15 16
000
FTUS44 KEWX 072331
TAFAUS
TAF
KAUS 072331Z 0800/0906 16014KT P6SM FEW050 OVC200
     FM080500 17010KT P6SM BKN013
     FM081600 18014KT P6SM SCT035 BKN250
     FM082000 16015G25KT P6SM SCT050 BKN250
     FM090500 17012KT P6SM BKN012=

USA.gov is the U.S. government's official web portal to all federal, state and local government web resources and services.